Terminal Aerodrome Forecast
Issued by NWS

Home | Current Version | Previous Version | Text Only | Print | Product List | Glossary On
Versions: 1 2 3 4 5 6 7 8 9 10 11 12 13 14 15 16 17 18
214
FTUS41 KCAR 191902 AAA
TAFPQI
TAF AMD
KPQI 191902Z 1919/2018 16006KT 6SM -DZ OVC010
     FM200300 17004KT 3SM BR VCSH BKN005
     FM201000 22005KT P6SM VCSH OVC003
     FM201700 31010KT P6SM BKN020=

USA.gov is the U.S. government's official web portal to all federal, state and local government web resources and services.